Time,TemperatureF,DewpointF,PressureIn,WindDirection,WindDirectionDegrees,WindSpeedMPH,WindSpeedGustMPH,Humidity,HourlyPrecipIn,Conditions,Clouds,dailyrainin,SolarRadiationWatts/m^2,SoftwareType,DateUTC
2013-05-27 00:00:00,61.0,33.0,-100.00,East,90,3.0,-999.0,35,-99.99,,,-99.99,0.000000,,2013-05-27 04:00:00,
2013-05-27 00:33:00,61.0,33.0,-100.00,East,90,3.0,-999.0,35,-99.99,,,-99.99,0.000000,,2013-05-27 04:33:00,
2013-05-27 00:43:00,61.0,33.0,-100.00,East,90,3.0,-999.0,35,-99.99,,,-99.99,0.000000,,2013-05-27 04:43:00,
2013-05-27 00:53:00,61.0,33.0,-100.00,East,90,3.0,-999.0,35,-99.99,,,-99.99,0.000000,,2013-05-27 04:53:00,
2013-05-27 01:00:00,60.0,30.0,-100.00,East,90,4.0,-999.0,32,-99.99,,,-99.99,0.000000,,2013-05-27 05:00:00,
2013-05-27 01:32:00,60.0,30.0,-100.00,East,90,4.0,-999.0,32,-99.99,,,-99.99,0.000000,,2013-05-27 05:32:00,
2013-05-27 01:42:00,60.0,30.0,-100.00,East,90,4.0,-999.0,32,-99.99,,,-99.99,0.000000,,2013-05-27 05:42:00,
2013-05-27 01:52:00,60.0,30.0,-100.00,East,90,4.0,-999.0,32,-99.99,,,-99.99,0.000000,,2013-05-27 05:52:00,
2013-05-27 02:00:00,59.0,31.0,-100.00,ESE,112,3.0,-999.0,33,-99.99,,,-99.99,0.000000,,2013-05-27 06:00:00,
2013-05-27 02:32:00,59.0,31.0,-100.00,ESE,112,3.0,-999.0,33,-99.99,,,-99.99,0.000000,,2013-05-27 06:32:00,
2013-05-27 02:42:00,59.0,31.0,-100.00,ESE,112,3.0,-999.0,33,-99.99,,,-99.99,0.000000,,2013-05-27 06:42:00,
2013-05-27 02:52:00,59.0,31.0,-100.00,ESE,112,3.0,-999.0,33,-99.99,,,-99.99,0.000000,,2013-05-27 06:52:00,
2013-05-27 03:00:00,60.0,30.0,-100.00,SE,135,5.0,-999.0,33,-99.99,,,-99.99,0.000000,,2013-05-27 07:00:00,
2013-05-27 03:32:00,60.0,30.0,-100.00,SE,135,5.0,-999.0,33,-99.99,,,-99.99,0.000000,,2013-05-27 07:32:00,
2013-05-27 03:42:00,60.0,30.0,-100.00,SE,135,5.0,-999.0,33,-99.99,,,-99.99,0.000000,,2013-05-27 07:42:00,
2013-05-27 03:53:00,60.0,30.0,-100.00,SE,135,5.0,-999.0,33,-99.99,,,-99.99,0.000000,,2013-05-27 07:53:00,
2013-05-27 04:00:00,59.0,31.0,-100.00,SE,135,4.0,-999.0,34,-99.99,,,-99.99,0.000000,,2013-05-27 08:00:00,
2013-05-27 04:33:00,59.0,31.0,-100.00,SE,135,4.0,-999.0,34,-99.99,,,-99.99,0.000000,,2013-05-27 08:33:00,
2013-05-27 04:42:00,59.0,31.0,-100.00,SE,135,4.0,-999.0,34,-99.99,,,-99.99,0.000000,,2013-05-27 08:42:00,
2013-05-27 04:52:00,59.0,31.0,-100.00,SE,135,4.0,-999.0,34,-99.99,,,-99.99,0.000000,,2013-05-27 08:52:00,
2013-05-27 05:00:00,59.0,33.0,-100.00,ESE,112,4.0,-999.0,37,-99.99,,,-99.99,0.000000,,2013-05-27 09:00:00,
2013-05-27 05:33:00,59.0,33.0,-100.00,ESE,112,4.0,-999.0,37,-99.99,,,-99.99,0.000000,,2013-05-27 09:33:00,
2013-05-27 05:42:00,59.0,33.0,-100.00,ESE,112,4.0,-999.0,37,-99.99,,,-99.99,0.000000,,2013-05-27 09:42:00,
2013-05-27 05:53:00,59.0,33.0,-100.00,ESE,112,4.0,-999.0,37,-99.99,,,-99.99,0.000000,,2013-05-27 09:53:00,
2013-05-27 06:00:00,58.0,38.0,-100.00,SE,135,8.0,-999.0,46,-99.99,,,-99.99,0.000000,,2013-05-27 10:00:00,
2013-05-27 06:32:00,58.0,38.0,-100.00,SE,135,8.0,-999.0,46,-99.99,,,-99.99,0.000000,,2013-05-27 10:32:00,
2013-05-27 06:42:00,58.0,38.0,-100.00,SE,135,8.0,-999.0,46,-99.99,,,-99.99,0.000000,,2013-05-27 10:42:00,
2013-05-27 06:53:00,58.0,38.0,-100.00,SE,135,8.0,-999.0,46,-99.99,,,-99.99,0.000000,,2013-05-27 10:53:00,
2013-05-27 07:00:00,55.0,43.0,-100.00,SSE,157,10.0,-999.0,62,-99.99,,,-99.99,2.320000,,2013-05-27 11:00:00,
2013-05-27 07:32:00,55.0,43.0,-100.00,SSE,157,10.0,-999.0,62,-99.99,,,-99.99,2.320000,,2013-05-27 11:32:00,
2013-05-27 07:42:00,55.0,43.0,-100.00,SSE,157,10.0,-999.0,62,-99.99,,,-99.99,2.320000,,2013-05-27 11:42:00,
2013-05-27 07:52:00,55.0,43.0,-100.00,SSE,157,10.0,-999.0,62,-99.99,,,-99.99,2.320000,,2013-05-27 11:52:00,
2013-05-27 08:00:00,53.0,46.0,-100.00,SSE,157,11.0,-999.0,77,0.01,,,-99.99,15.080000,,2013-05-27 12:00:00,
2013-05-27 08:32:00,53.0,46.0,-100.00,SSE,157,11.0,-999.0,77,0.01,,,-99.99,15.080000,,2013-05-27 12:32:00,
2013-05-27 08:42:00,53.0,46.0,-100.00,SSE,157,11.0,-999.0,77,0.01,,,-99.99,15.080000,,2013-05-27 12:42:00,
2013-05-27 08:52:00,53.0,46.0,-100.00,SSE,157,11.0,-999.0,77,0.01,,,-99.99,15.080000,,2013-05-27 12:52:00,
2013-05-27 09:00:00,52.0,48.0,-100.00,SE,135,8.0,-999.0,89,0.03,,,-99.99,35.959999,,2013-05-27 13:00:00,
2013-05-27 09:32:00,52.0,48.0,-100.00,SE,135,8.0,-999.0,89,0.03,,,-99.99,35.959999,,2013-05-27 13:32:00,
2013-05-27 09:42:00,52.0,48.0,-100.00,SE,135,8.0,-999.0,89,0.03,,,-99.99,35.959999,,2013-05-27 13:42:00,
2013-05-27 09:53:00,52.0,48.0,-100.00,SE,135,8.0,-999.0,89,0.03,,,-99.99,35.959999,,2013-05-27 13:53:00,
2013-05-27 10:00:00,52.0,49.0,-100.00,SE,135,7.0,-999.0,89,0.01,,,-99.99,62.639999,,2013-05-27 14:00:00,
2013-05-27 10:32:00,52.0,49.0,-100.00,SE,135,7.0,-999.0,89,0.01,,,-99.99,62.639999,,2013-05-27 14:32:00,
2013-05-27 10:42:00,52.0,49.0,-100.00,SE,135,7.0,-999.0,89,0.01,,,-99.99,62.639999,,2013-05-27 14:42:00,
2013-05-27 10:52:00,52.0,49.0,-100.00,SE,135,7.0,-999.0,89,0.01,,,-99.99,62.639999,,2013-05-27 14:52:00,
2013-05-27 11:00:00,52.0,48.0,-100.00,SE,135,7.0,-999.0,89,0.04,,,-99.99,63.799999,,2013-05-27 15:00:00,
2013-05-27 11:33:00,52.0,48.0,-100.00,SE,135,7.0,-999.0,89,0.04,,,-99.99,63.799999,,2013-05-27 15:33:00,
2013-05-27 11:43:00,52.0,48.0,-100.00,SE,135,7.0,-999.0,89,0.04,,,-99.99,63.799999,,2013-05-27 15:43:00,
2013-05-27 11:53:00,52.0,48.0,-100.00,SE,135,7.0,-999.0,89,0.04,,,-99.99,63.799999,,2013-05-27 15:53:00,
2013-05-27 13:00:00,52.0,49.0,-100.00,ESE,112,8.0,-999.0,88,0.01,,,-99.99,170.520004,,2013-05-27 17:00:00,
2013-05-27 13:32:00,52.0,49.0,-100.00,ESE,112,8.0,-999.0,88,0.01,,,-99.99,170.520004,,2013-05-27 17:32:00,
2013-05-27 13:43:00,52.0,49.0,-100.00,ESE,112,8.0,-999.0,88,0.01,,,-99.99,170.520004,,2013-05-27 17:43:00,
2013-05-27 13:52:00,52.0,49.0,-100.00,ESE,112,8.0,-999.0,88,0.01,,,-99.99,170.520004,,2013-05-27 17:52:00,
2013-05-27 14:00:00,54.0,49.0,-100.00,ESE,112,8.0,-999.0,85,-99.99,,,-99.99,203.000000,,2013-05-27 18:00:00,
2013-05-27 14:32:00,54.0,49.0,-100.00,ESE,112,8.0,-999.0,85,-99.99,,,-99.99,203.000000,,2013-05-27 18:32:00,
2013-05-27 14:42:00,54.0,49.0,-100.00,ESE,112,8.0,-999.0,85,-99.99,,,-99.99,203.000000,,2013-05-27 18:42:00,
2013-05-27 14:52:00,54.0,49.0,-100.00,ESE,112,8.0,-999.0,85,-99.99,,,-99.99,203.000000,,2013-05-27 18:52:00,
2013-05-27 15:00:00,54.0,50.0,-100.00,ESE,112,8.0,-999.0,85,-99.99,,,-99.99,182.119995,,2013-05-27 19:00:00,
2013-05-27 15:32:00,54.0,50.0,-100.00,ESE,112,8.0,-999.0,85,-99.99,,,-99.99,182.119995,,2013-05-27 19:32:00,
2013-05-27 15:42:00,54.0,50.0,-100.00,ESE,112,8.0,-999.0,85,-99.99,,,-99.99,182.119995,,2013-05-27 19:42:00,
2013-05-27 15:52:00,54.0,50.0,-100.00,ESE,112,8.0,-999.0,85,-99.99,,,-99.99,182.119995,,2013-05-27 19:52:00,
2013-05-27 16:00:00,55.0,50.0,-100.00,ESE,112,6.0,-999.0,83,-99.99,,,-99.99,70.760002,,2013-05-27 20:00:00,
2013-05-27 16:32:00,55.0,50.0,-100.00,ESE,112,6.0,-999.0,83,-99.99,,,-99.99,70.760002,,2013-05-27 20:32:00,
2013-05-27 16:42:00,55.0,50.0,-100.00,ESE,112,6.0,-999.0,83,-99.99,,,-99.99,70.760002,,2013-05-27 20:42:00,
2013-05-27 16:53:00,55.0,50.0,-100.00,ESE,112,6.0,-999.0,83,-99.99,,,-99.99,70.760002,,2013-05-27 20:53:00,
2013-05-27 17:00:00,54.0,50.0,-100.00,ESE,112,8.0,-999.0,87,0.03,,,-99.99,92.800003,,2013-05-27 21:00:00,
2013-05-27 17:33:00,54.0,50.0,-100.00,ESE,112,8.0,-999.0,87,0.03,,,-99.99,92.800003,,2013-05-27 21:33:00,
2013-05-27 17:43:00,54.0,50.0,-100.00,ESE,112,8.0,-999.0,87,0.03,,,-99.99,92.800003,,2013-05-27 21:43:00,
2013-05-27 17:53:00,54.0,50.0,-100.00,ESE,112,8.0,-999.0,87,0.03,,,-99.99,92.800003,,2013-05-27 21:53:00,
2013-05-27 18:00:00,53.0,51.0,-100.00,East,90,8.0,-999.0,90,0.05,,,-99.99,96.279999,,2013-05-27 22:00:00,
2013-05-27 18:33:00,53.0,51.0,-100.00,East,90,8.0,-999.0,90,0.05,,,-99.99,96.279999,,2013-05-27 22:33:00,
2013-05-27 18:42:00,53.0,51.0,-100.00,East,90,8.0,-999.0,90,0.05,,,-99.99,96.279999,,2013-05-27 22:42:00,
2013-05-27 18:53:00,53.0,51.0,-100.00,East,90,8.0,-999.0,90,0.05,,,-99.99,96.279999,,2013-05-27 22:53:00,
2013-05-27 19:00:00,53.0,51.0,-100.00,ESE,112,9.0,-999.0,90,-99.99,,,-99.99,103.239998,,2013-05-27 23:00:00,
2013-05-27 19:32:00,53.0,51.0,-100.00,ESE,112,9.0,-999.0,90,-99.99,,,-99.99,103.239998,,2013-05-27 23:32:00,
2013-05-27 19:42:00,53.0,51.0,-100.00,ESE,112,9.0,-999.0,90,-99.99,,,-99.99,103.239998,,2013-05-27 23:42:00,
2013-05-27 19:52:00,53.0,51.0,-100.00,ESE,112,9.0,-999.0,90,-99.99,,,-99.99,103.239998,,2013-05-27 23:52:00,
2013-05-27 21:00:00,53.0,50.0,-100.00,ESE,112,9.0,-999.0,89,-99.99,,,-99.99,9.280000,,2013-05-28 01:00:00,
2013-05-27 21:32:00,53.0,50.0,-100.00,ESE,112,9.0,-999.0,89,-99.99,,,-99.99,9.280000,,2013-05-28 01:32:00,
2013-05-27 21:42:00,53.0,50.0,-100.00,ESE,112,9.0,-999.0,89,-99.99,,,-99.99,9.280000,,2013-05-28 01:42:00,
2013-05-27 21:52:00,53.0,50.0,-100.00,ESE,112,9.0,-999.0,89,-99.99,,,-99.99,9.280000,,2013-05-28 01:52:00,
2013-05-27 22:00:00,53.0,50.0,-100.00,ESE,112,8.0,-999.0,90,0.01,,,-99.99,1.160000,,2013-05-28 02:00:00,
2013-05-27 22:32:00,53.0,50.0,-100.00,ESE,112,8.0,-999.0,90,0.01,,,-99.99,1.160000,,2013-05-28 02:32:00,
2013-05-27 22:42:00,53.0,50.0,-100.00,ESE,112,8.0,-999.0,90,0.01,,,-99.99,1.160000,,2013-05-28 02:42:00,
2013-05-27 22:52:00,53.0,50.0,-100.00,ESE,112,8.0,-999.0,90,0.01,,,-99.99,1.160000,,2013-05-28 02:52:00,
2013-05-27 23:00:00,53.0,51.0,-100.00,East,90,8.0,-999.0,90,-99.99,,,-99.99,0.000000,,2013-05-28 03:00:00,
2013-05-27 23:33:00,53.0,51.0,-100.00,East,90,8.0,-999.0,90,-99.99,,,-99.99,0.000000,,2013-05-28 03:33:00,
2013-05-27 23:43:00,53.0,51.0,-100.00,East,90,8.0,-999.0,90,-99.99,,,-99.99,0.000000,,2013-05-28 03:43:00,
2013-05-27 23:53:00,53.0,51.0,-100.00,East,90,8.0,-999.0,90,-99.99,,,-99.99,0.000000,,2013-05-28 03:53:00,